sensor_id;sensor_type;location;lat;lon;timestamp;temperature;humidity
64874;HTU21D;51367;45.204;38.576;2023-01-10T00:00:31;-6.75;75.33
64874;HTU21D;51367;45.204;38.576;2023-01-10T00:03:00;-6.76;75.33
64874;HTU21D;51367;45.204;38.576;2023-01-10T00:05:26;-6.77;75.31
64874;HTU21D;51367;45.204;38.576;2023-01-10T00:07:52;-6.78;75.29
64874;HTU21D;51367;45.204;38.576;2023-01-10T00:10:18;-6.79;75.24
64874;HTU21D;51367;45.204;38.576;2023-01-10T00:12:45;-6.82;75.25
64874;HTU21D;51367;45.204;38.576;2023-01-10T00:15:33;-6.85;75.25
64874;HTU21D;51367;45.204;38.576;2023-01-10T00:17:59;-6.86;75.33
64874;HTU21D;51367;45.204;38.576;2023-01-10T00:20:25;-6.89;75.29
64874;HTU21D;51367;45.204;38.576;2023-01-10T00:22:51;-6.91;75.29
64874;HTU21D;51367;45.204;38.576;2023-01-10T00:25:17;-6.93;75.33
64874;HTU21D;51367;45.204;38.576;2023-01-10T00:27:52;-6.94;75.31
64874;HTU21D;51367;45.204;38.576;2023-01-10T00:30:25;-6.96;75.32
64874;HTU21D;51367;45.204;38.576;2023-01-10T00:32:51;-6.98;75.32
64874;HTU21D;51367;45.204;38.576;2023-01-10T00:35:17;-7.00;75.41
64874;HTU21D;51367;45.204;38.576;2023-01-10T00:37:43;-7.02;75.41
64874;HTU21D;51367;45.204;38.576;2023-01-10T00:40:09;-7.03;75.46
64874;HTU21D;51367;45.204;38.576;2023-01-10T00:42:36;-7.04;75.46
64874;HTU21D;51367;45.204;38.576;2023-01-10T00:45:21;-7.05;75.43
64874;HTU21D;51367;45.204;38.576;2023-01-10T00:47:50;-7.08;75.47
64874;HTU21D;51367;45.204;38.576;2023-01-10T00:50:16;-7.09;75.41
64874;HTU21D;51367;45.204;38.576;2023-01-10T00:52:42;-7.11;75.41
64874;HTU21D;51367;45.204;38.576;2023-01-10T00:55:09;-7.12;75.47
64874;HTU21D;51367;45.204;38.576;2023-01-10T00:57:36;-7.15;75.41
64874;HTU21D;51367;45.204;38.576;2023-01-10T01:00:03;-7.16;75.38
64874;HTU21D;51367;45.204;38.576;2023-01-10T01:02:32;-7.19;75.41
64874;HTU21D;51367;45.204;38.576;2023-01-10T01:04:58;-7.17;75.46
64874;HTU21D;51367;45.204;38.576;2023-01-10T01:07:24;-7.18;75.42
64874;HTU21D;51367;45.204;38.576;2023-01-10T01:09:49;-7.17;75.39
64874;HTU21D;51367;45.204;38.576;2023-01-10T01:12:34;-7.18;75.32
64874;HTU21D;51367;45.204;38.576;2023-01-10T01:15:00;-7.19;75.25
64874;HTU21D;51367;45.204;38.576;2023-01-10T01:17:25;-7.20;75.24
64874;HTU21D;51367;45.204;38.576;2023-01-10T01:19:51;-7.20;75.21
64874;HTU21D;51367;45.204;38.576;2023-01-10T01:22:18;-7.22;75.19
64874;HTU21D;51367;45.204;38.576;2023-01-10T01:24:44;-7.24;75.18
64874;HTU21D;51367;45.204;38.576;2023-01-10T01:27:10;-7.25;75.16
64874;HTU21D;51367;45.204;38.576;2023-01-10T01:29:35;-7.27;75.13
64874;HTU21D;51367;45.204;38.576;2023-01-10T01:32:01;-7.27;75.15
64874;HTU21D;51367;45.204;38.576;2023-01-10T01:34:27;-7.29;75.09
64874;HTU21D;51367;45.204;38.576;2023-01-10T01:36:53;-7.30;75.05
64874;HTU21D;51367;45.204;38.576;2023-01-10T01:39:21;-7.31;75.05
64874;HTU21D;51367;45.204;38.576;2023-01-10T01:41:47;-7.31;75.02
64874;HTU21D;51367;45.204;38.576;2023-01-10T01:44:23;-7.32;74.96
64874;HTU21D;51367;45.204;38.576;2023-01-10T01:47:05;-7.33;74.89
64874;HTU21D;51367;45.204;38.576;2023-01-10T01:49:37;-7.35;74.88
64874;HTU21D;51367;45.204;38.576;2023-01-10T01:52:09;-7.37;74.83
64874;HTU21D;51367;45.204;38.576;2023-01-10T01:54:36;-7.37;74.79
64874;HTU21D;51367;45.204;38.576;2023-01-10T01:57:07;-7.37;74.76
64874;HTU21D;51367;45.204;38.576;2023-01-10T01:59:38;-7.39;74.73
64874;HTU21D;51367;45.204;38.576;2023-01-10T02:02:17;-7.41;74.70
64874;HTU21D;51367;45.204;38.576;2023-01-10T02:04:51;-7.45;74.70
64874;HTU21D;51367;45.204;38.576;2023-01-10T02:07:20;-7.45;74.67
64874;HTU21D;51367;45.204;38.576;2023-01-10T02:09:51;-7.46;74.67
64874;HTU21D;51367;45.204;38.576;2023-01-10T02:12:19;-7.46;74.64
64874;HTU21D;51367;45.204;38.576;2023-01-10T02:14:48;-7.47;74.60
64874;HTU21D;51367;45.204;38.576;2023-01-10T02:17:15;-7.49;74.55
64874;HTU21D;51367;45.204;38.576;2023-01-10T02:22:50;-7.52;74.51
64874;HTU21D;51367;45.204;38.576;2023-01-10T02:34:22;-7.63;74.43
64874;HTU21D;51367;45.204;38.576;2023-01-10T02:37:19;-7.65;74.45
64874;HTU21D;51367;45.204;38.576;2023-01-10T02:39:57;-7.66;74.47
64874;HTU21D;51367;45.204;38.576;2023-01-10T02:42:33;-7.68;74.48
64874;HTU21D;51367;45.204;38.576;2023-01-10T02:45:24;-7.69;74.54
64874;HTU21D;51367;45.204;38.576;2023-01-10T02:47:51;-7.70;74.52
64874;HTU21D;51367;45.204;38.576;2023-01-10T02:50:29;-7.71;74.48
64874;HTU21D;51367;45.204;38.576;2023-01-10T02:52:58;-7.72;74.45
64874;HTU21D;51367;45.204;38.576;2023-01-10T03:07:01;-7.82;74.37
64874;HTU21D;51367;45.204;38.576;2023-01-10T03:09:44;-7.83;74.38
64874;HTU21D;51367;45.204;38.576;2023-01-10T03:12:22;-7.86;74.37
64874;HTU21D;51367;45.204;38.576;2023-01-10T03:14:50;-7.86;74.40
64874;HTU21D;51367;45.204;38.576;2023-01-10T03:17:18;-7.87;74.40
64874;HTU21D;51367;45.204;38.576;2023-01-10T03:19:50;-7.86;74.38
64874;HTU21D;51367;45.204;38.576;2023-01-10T03:22:17;-7.87;74.36
64874;HTU21D;51367;45.204;38.576;2023-01-10T03:24:48;-7.89;74.34
64874;HTU21D;51367;45.204;38.576;2023-01-10T03:29:54;-7.91;74.34
64874;HTU21D;51367;45.204;38.576;2023-01-10T03:32:24;-7.91;74.32
64874;HTU21D;51367;45.204;38.576;2023-01-10T03:34:51;-7.91;74.22
64874;HTU21D;51367;45.204;38.576;2023-01-10T03:37:36;-7.95;74.24
64874;HTU21D;51367;45.204;38.576;2023-01-10T03:40:24;-7.95;74.30
64874;HTU21D;51367;45.204;38.576;2023-01-10T03:43:02;-7.94;74.29
64874;HTU21D;51367;45.204;38.576;2023-01-10T03:45:59;-7.93;74.26
64874;HTU21D;51367;45.204;38.576;2023-01-10T03:48:32;-7.93;74.22
64874;HTU21D;51367;45.204;38.576;2023-01-10T03:51:02;-7.94;74.19
64874;HTU21D;51367;45.204;38.576;2023-01-10T03:53:30;-7.95;74.21
64874;HTU21D;51367;45.204;38.576;2023-01-10T03:55:56;-7.96;74.24
64874;HTU21D;51367;45.204;38.576;2023-01-10T03:58:22;-7.96;74.25
64874;HTU21D;51367;45.204;38.576;2023-01-10T04:00:48;-7.95;74.23
64874;HTU21D;51367;45.204;38.576;2023-01-10T04:03:14;-7.95;74.19
64874;HTU21D;51367;45.204;38.576;2023-01-10T04:05:41;-7.96;74.16
64874;HTU21D;51367;45.204;38.576;2023-01-10T04:08:07;-7.97;74.18
64874;HTU21D;51367;45.204;38.576;2023-01-10T04:10:33;-7.98;74.17
64874;HTU21D;51367;45.204;38.576;2023-01-10T04:13:00;-7.97;74.16
64874;HTU21D;51367;45.204;38.576;2023-01-10T04:15:27;-7.98;74.15
64874;HTU21D;51367;45.204;38.576;2023-01-10T04:17:53;-7.97;74.11
64874;HTU21D;51367;45.204;38.576;2023-01-10T04:20:19;-7.98;74.09
64874;HTU21D;51367;45.204;38.576;2023-01-10T04:22:45;-8.00;74.07
64874;HTU21D;51367;45.204;38.576;2023-01-10T04:25:11;-8.00;74.09
64874;HTU21D;51367;45.204;38.576;2023-01-10T04:27:37;-8.03;74.07
64874;HTU21D;51367;45.204;38.576;2023-01-10T04:30:04;-8.04;74.09
64874;HTU21D;51367;45.204;38.576;2023-01-10T04:32:30;-8.05;74.07
64874;HTU21D;51367;45.204;38.576;2023-01-10T04:34:56;-8.05;74.09
64874;HTU21D;51367;45.204;38.576;2023-01-10T04:37:21;-8.06;74.11
64874;HTU21D;51367;45.204;38.576;2023-01-10T04:39:47;-8.07;74.09
64874;HTU21D;51367;45.204;38.576;2023-01-10T04:42:15;-8.05;74.06
64874;HTU21D;51367;45.204;38.576;2023-01-10T04:44:41;-8.04;74.01
64874;HTU21D;51367;45.204;38.576;2023-01-10T04:47:07;-8.04;73.96
64874;HTU21D;51367;45.204;38.576;2023-01-10T04:49:33;-8.03;73.90
64874;HTU21D;51367;45.204;38.576;2023-01-10T04:51:59;-8.03;73.80
64874;HTU21D;51367;45.204;38.576;2023-01-10T04:54:25;-7.99;73.70
64874;HTU21D;51367;45.204;38.576;2023-01-10T04:56:51;-7.98;73.65
64874;HTU21D;51367;45.204;38.576;2023-01-10T04:59:17;-7.99;73.57
64874;HTU21D;51367;45.204;38.576;2023-01-10T05:01:43;-7.98;73.55
64874;HTU21D;51367;45.204;38.576;2023-01-10T05:04:09;-7.99;73.56
64874;HTU21D;51367;45.204;38.576;2023-01-10T05:06:35;-7.98;73.54
64874;HTU21D;51367;45.204;38.576;2023-01-10T05:09:05;-7.98;73.51
64874;HTU21D;51367;45.204;38.576;2023-01-10T05:11:31;-8.01;73.55
64874;HTU21D;51367;45.204;38.576;2023-01-10T05:13:57;-8.06;73.56
64874;HTU21D;51367;45.204;38.576;2023-01-10T05:16:22;-8.10;73.57
64874;HTU21D;51367;45.204;38.576;2023-01-10T05:18:49;-8.15;73.63
64874;HTU21D;51367;45.204;38.576;2023-01-10T05:21:16;-8.20;73.68
64874;HTU21D;51367;45.204;38.576;2023-01-10T05:23:42;-8.22;73.73
64874;HTU21D;51367;45.204;38.576;2023-01-10T05:26:21;-8.25;73.78
64874;HTU21D;51367;45.204;38.576;2023-01-10T05:28:47;-8.25;73.81
64874;HTU21D;51367;45.204;38.576;2023-01-10T05:31:15;-8.26;73.81
64874;HTU21D;51367;45.204;38.576;2023-01-10T05:33:49;-8.26;73.87
64874;HTU21D;51367;45.204;38.576;2023-01-10T05:36:16;-8.25;73.88
64874;HTU21D;51367;45.204;38.576;2023-01-10T05:38:42;-8.25;73.88
64874;HTU21D;51367;45.204;38.576;2023-01-10T05:41:09;-8.23;73.86
64874;HTU21D;51367;45.204;38.576;2023-01-10T05:43:35;-8.21;73.84
64874;HTU21D;51367;45.204;38.576;2023-01-10T05:46:00;-8.20;73.80
64874;HTU21D;51367;45.204;38.576;2023-01-10T05:48:26;-8.16;73.77
64874;HTU21D;51367;45.204;38.576;2023-01-10T05:50:52;-8.15;73.77
64874;HTU21D;51367;45.204;38.576;2023-01-10T05:53:19;-8.11;73.77
64874;HTU21D;51367;45.204;38.576;2023-01-10T05:55:55;-8.07;73.74
64874;HTU21D;51367;45.204;38.576;2023-01-10T05:58:22;-8.03;73.70
64874;HTU21D;51367;45.204;38.576;2023-01-10T06:00:48;-7.97;73.65
64874;HTU21D;51367;45.204;38.576;2023-01-10T06:03:15;-7.91;73.57
64874;HTU21D;51367;45.204;38.576;2023-01-10T06:05:41;-7.84;73.44
64874;HTU21D;51367;45.204;38.576;2023-01-10T06:08:07;-7.77;73.40
64874;HTU21D;51367;45.204;38.576;2023-01-10T06:10:33;-7.63;73.48
64874;HTU21D;51367;45.204;38.576;2023-01-10T06:12:59;-7.37;73.48
64874;HTU21D;51367;45.204;38.576;2023-01-10T06:15:25;-7.06;72.68
64874;HTU21D;51367;45.204;38.576;2023-01-10T06:17:52;-6.74;72.29
64874;HTU21D;51367;45.204;38.576;2023-01-10T06:20:19;-6.44;71.88
64874;HTU21D;51367;45.204;38.576;2023-01-10T06:22:44;-6.13;71.66
64874;HTU21D;51367;45.204;38.576;2023-01-10T06:25:11;-5.73;71.96
64874;HTU21D;51367;45.204;38.576;2023-01-10T06:27:42;-5.32;70.89
64874;HTU21D;51367;45.204;38.576;2023-01-10T06:30:09;-5.00;69.60
64874;HTU21D;51367;45.204;38.576;2023-01-10T06:32:36;-4.75;68.94
64874;HTU21D;51367;45.204;38.576;2023-01-10T06:35:02;-4.44;68.30
64874;HTU21D;51367;45.204;38.576;2023-01-10T06:37:28;-4.11;67.27
64874;HTU21D;51367;45.204;38.576;2023-01-10T06:39:54;-3.94;65.43
64874;HTU21D;51367;45.204;38.576;2023-01-10T06:42:20;-3.76;65.81
64874;HTU21D;51367;45.204;38.576;2023-01-10T06:44:45;-3.54;64.98
64874;HTU21D;51367;45.204;38.576;2023-01-10T06:47:11;-3.27;64.65
64874;HTU21D;51367;45.204;38.576;2023-01-10T06:49:37;-2.93;65.19
64874;HTU21D;51367;45.204;38.576;2023-01-10T06:52:03;-2.61;63.04
64874;HTU21D;51367;45.204;38.576;2023-01-10T06:54:29;-2.39;62.90
64874;HTU21D;51367;45.204;38.576;2023-01-10T06:56:55;-2.19;63.21
64874;HTU21D;51367;45.204;38.576;2023-01-10T06:59:21;-1.99;61.18
64874;HTU21D;51367;45.204;38.576;2023-01-10T07:01:47;-1.84;62.03
64874;HTU21D;51367;45.204;38.576;2023-01-10T07:04:13;-1.56;61.57
64874;HTU21D;51367;45.204;38.576;2023-01-10T07:06:39;-1.36;60.54
64874;HTU21D;51367;45.204;38.576;2023-01-10T07:09:06;-1.21;59.23
64874;HTU21D;51367;45.204;38.576;2023-01-10T07:11:33;-1.11;58.59
64874;HTU21D;51367;45.204;38.576;2023-01-10T07:14:00;-0.98;58.64
64874;HTU21D;51367;45.204;38.576;2023-01-10T07:16:26;-0.90;56.74
64874;HTU21D;51367;45.204;38.576;2023-01-10T07:18:52;-0.93;56.36
64874;HTU21D;51367;45.204;38.576;2023-01-10T07:21:18;-1.04;57.48
64874;HTU21D;51367;45.204;38.576;2023-01-10T07:23:48;-1.03;56.69
64874;HTU21D;51367;45.204;38.576;2023-01-10T07:26:15;-1.01;56.81
64874;HTU21D;51367;45.204;38.576;2023-01-10T07:28:43;-0.94;57.09
64874;HTU21D;51367;45.204;38.576;2023-01-10T07:31:09;-0.79;58.22
64874;HTU21D;51367;45.204;38.576;2023-01-10T07:33:36;-0.67;56.02
64874;HTU21D;51367;45.204;38.576;2023-01-10T07:36:02;-0.68;55.49
64874;HTU21D;51367;45.204;38.576;2023-01-10T07:38:28;-0.66;54.48
64874;HTU21D;51367;45.204;38.576;2023-01-10T07:40:54;-0.73;54.33
64874;HTU21D;51367;45.204;38.576;2023-01-10T07:43:20;-0.77;54.20
64874;HTU21D;51367;45.204;38.576;2023-01-10T07:45:46;-0.79;54.25
64874;HTU21D;51367;45.204;38.576;2023-01-10T07:48:12;-0.84;54.36
64874;HTU21D;51367;45.204;38.576;2023-01-10T07:50:39;-0.80;54.20
64874;HTU21D;51367;45.204;38.576;2023-01-10T07:53:06;-0.77;54.42
64874;HTU21D;51367;45.204;38.576;2023-01-10T07:55:34;-0.67;54.22
64874;HTU21D;51367;45.204;38.576;2023-01-10T07:58:00;-0.62;54.42
64874;HTU21D;51367;45.204;38.576;2023-01-10T08:00:26;-0.57;54.81
64874;HTU21D;51367;45.204;38.576;2023-01-10T08:02:53;-0.53;54.07
64874;HTU21D;51367;45.204;38.576;2023-01-10T08:05:20;-0.53;52.51
64874;HTU21D;51367;45.204;38.576;2023-01-10T08:07:47;-0.60;52.37
64874;HTU21D;51367;45.204;38.576;2023-01-10T08:10:14;-0.70;52.92
64874;HTU21D;51367;45.204;38.576;2023-01-10T08:12:40;-0.81;52.24
64874;HTU21D;51367;45.204;38.576;2023-01-10T08:15:06;-0.95;52.76
64874;HTU21D;51367;45.204;38.576;2023-01-10T08:17:35;-1.09;52.78
64874;HTU21D;51367;45.204;38.576;2023-01-10T08:20:01;-1.18;53.48
64874;HTU21D;51367;45.204;38.576;2023-01-10T08:22:27;-1.19;53.49
64874;HTU21D;51367;45.204;38.576;2023-01-10T08:24:53;-1.25;53.19
64874;HTU21D;51367;45.204;38.576;2023-01-10T08:27:19;-1.30;53.36
64874;HTU21D;51367;45.204;38.576;2023-01-10T08:29:45;-1.38;53.30
64874;HTU21D;51367;45.204;38.576;2023-01-10T08:32:11;-1.34;53.55
64874;HTU21D;51367;45.204;38.576;2023-01-10T08:34:37;-1.38;52.43
64874;HTU21D;51367;45.204;38.576;2023-01-10T08:37:03;-1.45;52.91
64874;HTU21D;51367;45.204;38.576;2023-01-10T08:39:29;-1.44;52.67
64874;HTU21D;51367;45.204;38.576;2023-01-10T08:41:56;-1.57;52.19
64874;HTU21D;51367;45.204;38.576;2023-01-10T08:44:22;-1.74;52.30
64874;HTU21D;51367;45.204;38.576;2023-01-10T08:46:48;-1.89;52.14
64874;HTU21D;51367;45.204;38.576;2023-01-10T08:49:14;-2.03;52.81
64874;HTU21D;51367;45.204;38.576;2023-01-10T08:51:40;-2.16;52.55
64874;HTU21D;51367;45.204;38.576;2023-01-10T08:54:06;-2.32;52.75
64874;HTU21D;51367;45.204;38.576;2023-01-10T08:56:32;-2.43;53.27
64874;HTU21D;51367;45.204;38.576;2023-01-10T08:59:00;-2.45;53.93
64874;HTU21D;51367;45.204;38.576;2023-01-10T09:01:26;-2.44;53.32
64874;HTU21D;51367;45.204;38.576;2023-01-10T09:03:52;-2.46;53.65
64874;HTU21D;51367;45.204;38.576;2023-01-10T09:06:18;-2.46;54.10
64874;HTU21D;51367;45.204;38.576;2023-01-10T09:08:44;-2.39;53.71
64874;HTU21D;51367;45.204;38.576;2023-01-10T09:11:10;-2.41;53.30
64874;HTU21D;51367;45.204;38.576;2023-01-10T09:13:36;-2.39;54.10
64874;HTU21D;51367;45.204;38.576;2023-01-10T09:16:02;-2.32;53.80
64874;HTU21D;51367;45.204;38.576;2023-01-10T09:18:28;-2.29;53.62
64874;HTU21D;51367;45.204;38.576;2023-01-10T09:20:54;-2.26;54.02
64874;HTU21D;51367;45.204;38.576;2023-01-10T09:23:21;-2.21;54.36
64874;HTU21D;51367;45.204;38.576;2023-01-10T09:25:50;-2.14;53.78
64874;HTU21D;51367;45.204;38.576;2023-01-10T09:28:17;-2.09;53.97
64874;HTU21D;51367;45.204;38.576;2023-01-10T09:30:43;-2.02;54.20
64874;HTU21D;51367;45.204;38.576;2023-01-10T09:33:09;-1.95;53.76
64874;HTU21D;51367;45.204;38.576;2023-01-10T09:35:37;-1.92;54.01
64874;HTU21D;51367;45.204;38.576;2023-01-10T09:38:05;-1.88;53.64
64874;HTU21D;51367;45.204;38.576;2023-01-10T09:46:36;-1.79;54.10
64874;HTU21D;51367;45.204;38.576;2023-01-10T09:51:56;-1.61;53.38
64874;HTU21D;51367;45.204;38.576;2023-01-10T09:54:27;-1.58;53.78
64874;HTU21D;51367;45.204;38.576;2023-01-10T09:56:54;-1.55;53.47
64874;HTU21D;51367;45.204;38.576;2023-01-10T09:59:27;-1.54;53.51
64874;HTU21D;51367;45.204;38.576;2023-01-10T10:02:06;-1.48;54.19
64874;HTU21D;51367;45.204;38.576;2023-01-10T10:04:39;-1.43;52.88
64874;HTU21D;51367;45.204;38.576;2023-01-10T10:07:11;-1.44;53.00
64874;HTU21D;51367;45.204;38.576;2023-01-10T10:09:39;-1.47;53.00
64874;HTU21D;51367;45.204;38.576;2023-01-10T10:20:44;-1.48;53.30
64874;HTU21D;51367;45.204;38.576;2023-01-10T10:23:20;-1.48;53.30
64874;HTU21D;51367;45.204;38.576;2023-01-10T10:26:01;-1.44;53.36
64874;HTU21D;51367;45.204;38.576;2023-01-10T10:34:48;-1.31;53.08
64874;HTU21D;51367;45.204;38.576;2023-01-10T10:37:19;-1.30;53.16
64874;HTU21D;51367;45.204;38.576;2023-01-10T10:39:56;-1.29;52.42
64874;HTU21D;51367;45.204;38.576;2023-01-10T10:42:28;-1.27;53.07
64874;HTU21D;51367;45.204;38.576;2023-01-10T10:45:01;-1.21;53.47
64874;HTU21D;51367;45.204;38.576;2023-01-10T10:47:34;-1.14;52.92
64874;HTU21D;51367;45.204;38.576;2023-01-10T10:52:51;-1.08;52.77
64874;HTU21D;51367;45.204;38.576;2023-01-10T10:55:20;-1.03;52.95
64874;HTU21D;51367;45.204;38.576;2023-01-10T10:57:48;-1.01;53.11
64874;HTU21D;51367;45.204;38.576;2023-01-10T11:00:16;-0.96;53.13
64874;HTU21D;51367;45.204;38.576;2023-01-10T11:05:43;-0.88;52.59
64874;HTU21D;51367;45.204;38.576;2023-01-10T11:08:11;-0.88;52.43
64874;HTU21D;51367;45.204;38.576;2023-01-10T11:10:39;-0.86;53.10
64874;HTU21D;51367;45.204;38.576;2023-01-10T11:13:34;-0.76;53.60
64874;HTU21D;51367;45.204;38.576;2023-01-10T11:16:05;-0.67;52.65
64874;HTU21D;51367;45.204;38.576;2023-01-10T11:18:32;-0.67;52.14
64874;HTU21D;51367;45.204;38.576;2023-01-10T11:21:11;-0.68;52.07
64874;HTU21D;51367;45.204;38.576;2023-01-10T11:23:52;-0.68;52.65
64874;HTU21D;51367;45.204;38.576;2023-01-10T11:28:50;-0.57;52.08
64874;HTU21D;51367;45.204;38.576;2023-01-10T11:31:26;-0.58;52.05
64874;HTU21D;51367;45.204;38.576;2023-01-10T11:33:52;-0.54;52.16
64874;HTU21D;51367;45.204;38.576;2023-01-10T11:36:19;-0.52;52.07
64874;HTU21D;51367;45.204;38.576;2023-01-10T11:38:59;-0.50;52.40
64874;HTU21D;51367;45.204;38.576;2023-01-10T11:41:26;-0.46;52.43
64874;HTU21D;51367;45.204;38.576;2023-01-10T11:46:46;-0.45;51.37
64874;HTU21D;51367;45.204;38.576;2023-01-10T11:49:16;-0.45;51.77
64874;HTU21D;51367;45.204;38.576;2023-01-10T11:51:48;-0.45;51.71
64874;HTU21D;51367;45.204;38.576;2023-01-10T11:54:24;-0.43;52.06
64874;HTU21D;51367;45.204;38.576;2023-01-10T11:57:14;-0.42;51.78
64874;HTU21D;51367;45.204;38.576;2023-01-10T12:00:01;-0.41;52.17
64874;HTU21D;51367;45.204;38.576;2023-01-10T12:02:42;-0.41;51.91
64874;HTU21D;51367;45.204;38.576;2023-01-10T12:05:17;-0.41;52.04
64874;HTU21D;51367;45.204;38.576;2023-01-10T12:08:02;-0.42;52.17
64874;HTU21D;51367;45.204;38.576;2023-01-10T12:10:33;-0.42;52.13
64874;HTU21D;51367;45.204;38.576;2023-01-10T12:13:12;-0.41;52.32
64874;HTU21D;51367;45.204;38.576;2023-01-10T12:15:39;-0.42;52.62
64874;HTU21D;51367;45.204;38.576;2023-01-10T12:18:05;-0.39;52.75
64874;HTU21D;51367;45.204;38.576;2023-01-10T12:20:34;-0.38;52.36
64874;HTU21D;51367;45.204;38.576;2023-01-10T12:23:13;-0.37;52.86
64874;HTU21D;51367;45.204;38.576;2023-01-10T12:25:42;-0.37;51.66
64874;HTU21D;51367;45.204;38.576;2023-01-10T12:28:22;-0.40;52.27
64874;HTU21D;51367;45.204;38.576;2023-01-10T12:30:49;-0.42;52.52
64874;HTU21D;51367;45.204;38.576;2023-01-10T12:33:26;-0.42;52.45
64874;HTU21D;51367;45.204;38.576;2023-01-10T12:38:39;-0.44;52.20
64874;HTU21D;51367;45.204;38.576;2023-01-10T12:49:56;-0.55;52.16
64874;HTU21D;51367;45.204;38.576;2023-01-10T12:55:28;-0.58;52.70
64874;HTU21D;51367;45.204;38.576;2023-01-10T12:58:01;-0.61;53.20
64874;HTU21D;51367;45.204;38.576;2023-01-10T13:00:35;-0.66;53.02
64874;HTU21D;51367;45.204;38.576;2023-01-10T13:03:09;-0.69;53.56
64874;HTU21D;51367;45.204;38.576;2023-01-10T13:05:36;-0.72;53.78
64874;HTU21D;51367;45.204;38.576;2023-01-10T13:08:09;-0.76;53.88
64874;HTU21D;51367;45.204;38.576;2023-01-10T13:10:42;-0.81;54.07
64874;HTU21D;51367;45.204;38.576;2023-01-10T13:16:32;-0.96;54.57
64874;HTU21D;51367;45.204;38.576;2023-01-10T13:21:31;-1.06;55.04
64874;HTU21D;51367;45.204;38.576;2023-01-10T13:24:01;-1.11;55.24
64874;HTU21D;51367;45.204;38.576;2023-01-10T13:26:45;-1.16;55.37
64874;HTU21D;51367;45.204;38.576;2023-01-10T13:29:18;-1.17;55.56
64874;HTU21D;51367;45.204;38.576;2023-01-10T13:31:45;-1.23;55.60
64874;HTU21D;51367;45.204;38.576;2023-01-10T13:34:13;-1.26;55.80
64874;HTU21D;51367;45.204;38.576;2023-01-10T13:39:56;-1.39;55.97
64874;HTU21D;51367;45.204;38.576;2023-01-10T13:42:32;-1.46;56.18
64874;HTU21D;51367;45.204;38.576;2023-01-10T13:45:20;-1.54;56.39
64874;HTU21D;51367;45.204;38.576;2023-01-10T13:52:54;-1.80;56.92
64874;HTU21D;51367;45.204;38.576;2023-01-10T14:00:51;-2.09;57.42
64874;HTU21D;51367;45.204;38.576;2023-01-10T14:03:40;-2.18;57.58
64874;HTU21D;51367;45.204;38.576;2023-01-10T14:09:05;-2.39;57.96
64874;HTU21D;51367;45.204;38.576;2023-01-10T14:14:31;-2.62;58.46
64874;HTU21D;51367;45.204;38.576;2023-01-10T14:19:46;-2.80;58.93
64874;HTU21D;51367;45.204;38.576;2023-01-10T14:22:27;-2.88;59.12
64874;HTU21D;51367;45.204;38.576;2023-01-10T14:24:55;-2.98;59.42
64874;HTU21D;51367;45.204;38.576;2023-01-10T14:27:22;-3.08;59.35
64874;HTU21D;51367;45.204;38.576;2023-01-10T14:29:59;-3.16;59.71
64874;HTU21D;51367;45.204;38.576;2023-01-10T14:32:37;-3.24;59.76
64874;HTU21D;51367;45.204;38.576;2023-01-10T14:35:07;-3.31;60.05
64874;HTU21D;51367;45.204;38.576;2023-01-10T14:37:39;-3.36;60.12
64874;HTU21D;51367;45.204;38.576;2023-01-10T14:42:45;-3.49;60.52
64874;HTU21D;51367;45.204;38.576;2023-01-10T14:45:21;-3.55;60.68
64874;HTU21D;51367;45.204;38.576;2023-01-10T14:47:49;-3.58;60.73
64874;HTU21D;51367;45.204;38.576;2023-01-10T14:50:29;-3.64;60.76
64874;HTU21D;51367;45.204;38.576;2023-01-10T14:52:59;-3.71;60.90
64874;HTU21D;51367;45.204;38.576;2023-01-10T14:55:25;-3.77;61.34
64874;HTU21D;51367;45.204;38.576;2023-01-10T14:58:00;-3.79;61.42
64874;HTU21D;51367;45.204;38.576;2023-01-10T15:02:52;-3.84;61.88
64874;HTU21D;51367;45.204;38.576;2023-01-10T15:05:20;-3.91;61.83
64874;HTU21D;51367;45.204;38.576;2023-01-10T15:07:46;-3.93;62.02
64874;HTU21D;51367;45.204;38.576;2023-01-10T15:12:43;-3.97;62.18
64874;HTU21D;51367;45.204;38.576;2023-01-10T15:15:16;-3.97;62.73
64874;HTU21D;51367;45.204;38.576;2023-01-10T15:17:43;-3.98;62.64
64874;HTU21D;51367;45.204;38.576;2023-01-10T15:20:18;-3.98;62.86
64874;HTU21D;51367;45.204;38.576;2023-01-10T15:23:00;-4.01;62.73
64874;HTU21D;51367;45.204;38.576;2023-01-10T15:25:34;-4.00;63.01
64874;HTU21D;51367;45.204;38.576;2023-01-10T15:28:11;-4.04;63.31
64874;HTU21D;51367;45.204;38.576;2023-01-10T15:30:39;-4.05;63.33
64874;HTU21D;51367;45.204;38.576;2023-01-10T15:33:20;-4.08;63.27
64874;HTU21D;51367;45.204;38.576;2023-01-10T15:35:47;-4.09;63.53
64874;HTU21D;51367;45.204;38.576;2023-01-10T15:38:17;-4.10;63.72
64874;HTU21D;51367;45.204;38.576;2023-01-10T15:40:59;-4.14;63.43
64874;HTU21D;51367;45.204;38.576;2023-01-10T15:43:28;-4.19;63.40
64874;HTU21D;51367;45.204;38.576;2023-01-10T15:45:56;-4.24;63.50
64874;HTU21D;51367;45.204;38.576;2023-01-10T15:50:57;-4.36;64.08
64874;HTU21D;51367;45.204;38.576;2023-01-10T15:56:48;-4.51;64.16
64874;HTU21D;51367;45.204;38.576;2023-01-10T15:59:33;-4.54;64.55
64874;HTU21D;51367;45.204;38.576;2023-01-10T16:04:34;-4.60;65.13
64874;HTU21D;51367;45.204;38.576;2023-01-10T16:07:07;-4.61;65.37
64874;HTU21D;51367;45.204;38.576;2023-01-10T16:09:37;-4.64;65.53
64874;HTU21D;51367;45.204;38.576;2023-01-10T16:12:04;-4.67;65.62
64874;HTU21D;51367;45.204;38.576;2023-01-10T16:14:48;-4.74;65.58
64874;HTU21D;51367;45.204;38.576;2023-01-10T16:17:14;-4.80;65.58
64874;HTU21D;51367;45.204;38.576;2023-01-10T16:19:40;-4.86;65.50
64874;HTU21D;51367;45.204;38.576;2023-01-10T16:22:06;-4.91;65.65
64874;HTU21D;51367;45.204;38.576;2023-01-10T16:24:34;-4.98;65.81
64874;HTU21D;51367;45.204;38.576;2023-01-10T16:27:04;-5.05;66.00
64874;HTU21D;51367;45.204;38.576;2023-01-10T16:29:32;-5.11;66.17
64874;HTU21D;51367;45.204;38.576;2023-01-10T16:31:59;-5.14;66.49
64874;HTU21D;51367;45.204;38.576;2023-01-10T16:34:24;-5.17;66.97
64874;HTU21D;51367;45.204;38.576;2023-01-10T16:36:51;-5.18;66.81
64874;HTU21D;51367;45.204;38.576;2023-01-10T16:39:19;-5.22;67.13
64874;HTU21D;51367;45.204;38.576;2023-01-10T16:41:46;-5.27;67.47
64874;HTU21D;51367;45.204;38.576;2023-01-10T16:44:31;-5.28;67.54
64874;HTU21D;51367;45.204;38.576;2023-01-10T16:46:58;-5.31;67.80
64874;HTU21D;51367;45.204;38.576;2023-01-10T16:49:24;-5.33;67.67
64874;HTU21D;51367;45.204;38.576;2023-01-10T16:51:50;-5.37;67.94
64874;HTU21D;51367;45.204;38.576;2023-01-10T16:54:21;-5.38;68.03
64874;HTU21D;51367;45.204;38.576;2023-01-10T16:56:50;-5.41;68.09
64874;HTU21D;51367;45.204;38.576;2023-01-10T16:59:16;-5.43;68.17
64874;HTU21D;51367;45.204;38.576;2023-01-10T17:01:55;-5.45;68.03
64874;HTU21D;51367;45.204;38.576;2023-01-10T17:04:27;-5.47;68.26
64874;HTU21D;51367;45.204;38.576;2023-01-10T17:06:55;-5.49;68.53
64874;HTU21D;51367;45.204;38.576;2023-01-10T17:09:28;-5.49;68.84
64874;HTU21D;51367;45.204;38.576;2023-01-10T17:12:04;-5.50;68.94
64874;HTU21D;51367;45.204;38.576;2023-01-10T17:14:35;-5.53;68.84
64874;HTU21D;51367;45.204;38.576;2023-01-10T17:17:02;-5.56;68.66